Tyler, TX (75701)

7:24 PM CDT on August 20, 2014 (GMT -0500)
McDonaldRd | Change Station
CLOSE
Current Station
Personal Weather Station
Location: Tyler, TX
Elevation: 623 ft
Nearby Weather Stations

Elev 623 ft 32.32 °N, 95.27 °W | Updated 2 minutes ago

Partly Cloudy
Partly Cloudy
88.9 °F
Feels Like 93 °F
N
4.0
Wind Variable Wind from East
Gusts 5.0 mph

Today
High -- | Low -- °F
--% Chance of Precip.
Yesterday
High -- | Low -- °F
Precip. -- in
6:48 AM 7:59 PM
Waning Crescent, 18% visible
Pressure 29.93 in
Visibility 10.0 miles
Clouds Few 4600 ft
Heat Index 93 °F
Dew Point 69 °F
Humidity 52%
Rainfall 0.00 in
Snow Depth Not available.
UV 1 out of 12
Pollen 8.40 out of 12
Ozone Good
PM2.5 Moderate
Flu Activity Not available.
METAR KTYR 202353Z 15010KT 10SM FEW046 33/22 A2995 RMK AO2 SLP133 T03330217 10361 20333 55001

More Conditions Fewer Conditions

Pressure 29.93 in
Visibility 10.0 miles
Clouds Few 4600 ft
Heat Index 93 °F
Dew Point 69 °F
Humidity 52%
Rainfall 0.00 in
Snow Depth Not available.
UV 1 out of 12
Pollen 8.40 out of 12
Ozone Good
PM2.5 Moderate
Flu Activity Not available.
METAR KTYR 202353Z 15010KT 10SM FEW046 33/22 A2995 RMK AO2 SLP133 T03330217 10361 20333 55001

More Conditions Fewer Conditions

Nowcast | as of 6:40 PM CDT on August 20, 2014

Showers and thunderstorms continue pushing northward across portions of the region...mainly near and south of the i20 corridor. Gusty winds...brief heavy rain...and dangerous lightning are possible with stronger storms. Movement is to the north about 30 mph.

×

10-Day Weather Forecast

Almanac

Astronomy

Aug. 20, 2014 Rise Set
Actual Time 6:48 AM CDT 7:59 PM CDT
Civil Twilight 6:22 AM CDT 8:25 PM CDT
Nautical Twilight 5:52 AM CDT 8:55 PM CDT
Astronomical Twilight 5:21 AM CDT 9:27 PM CDT
Moon 2:35 AM CDT (8/20) 4:39 PM CDT (8/20)
Length of Visible Light 14h 02m
Length of Day
13h 11m
Tomorrow will be 1m 47s shorter.
Waning Crescent, 18% of the Moon is Illuminated
Today
Waning Crescent
Aug 25
New
Sep 2
First Quarter
Sep 8
Full
Sep 15
Last Quarter

Today's Extremes

State Highs State Lows

Community

WunderPhotos

Upload Photos

1,745,807 photos uploaded!

WunderBlogs® & News

Nearby

Air Quality

  Air Quality AQ Index Pollutant
Yesterday Good
PM2.5
Yesterday Good
OZONE
Current Moderate
PM2.5
Current Good
OZONE
Wednesday Good
PM10
Wednesday Good
OZONE
Thursday Good
PM10
Thursday Good
OZONE
Friday Good
PM10
Friday Good
OZONE
Saturday Good
PM10
Saturday Good
OZONE

Snow Depth

Station Depth Elevation
No new snow has been reported.

Earthquake Activity

City Distance Mag. Time & Date
No recent earthquake activity has been reported nearby.
Minimum magnitude displayed is 2.5.

Coastal Water Temperatures

Place Temperature
No Stations Reporting

Nearby Weather Stations